To NAV CANADA Home Page Login to a new session Search on AWWS site Disclaimer Vers la page française équivalente Tips FAQ What's new on the site To the Forecasts and Observations / NOTAM section To "File a Flight Plan" website Publications and other links Update of the User's profile FIC Telephone Numbers My Weather Data Folder Route Weather Data Regional Weather Data Local Weather Data To the Forecasts and Observations / NOTAM section
Request Generated 11/16/2018 at 01:07:43 UTC . Weather information available at that time is displayed.

METAR/TAF

KINGSTON/ON    

METAR CYGK 160100Z 10010KT 050V120 1SM -SN OVC006 M02/M02 A3014 RMK SF8 SLP212=
SPECI CYGK 160019Z 14012KT 1SM -SN OVC007 M01/M02 A3017 RMK SF8 PRESFR SLP224=
SPECI CYGK 160006Z 15013KT 1 1/4SM -SN BKN006 OVC019 M01/M02 A3019 RMK SF5SC3 SLP232=
METAR CYGK 160000Z 15011KT 1 1/4SM -SN SCT009 OVC019 M01/M02 A3019 RMK SF4SC4 SLP232=
SPECI CYGK 152344Z 16012G18KT 1 1/2SM -SN OVC018 M00/M03 A3019 RMK SC8 SLP232=
SPECI CYGK 152334Z 17013G19KT 2 1/2SM -SN OVC023 00/M04 A3020 RMK SC8 SLP233=
SPECI CYGK 152320Z 16013G21KT 8SM -SN BKN030 OVC080 01/M05 A3021 RMK SC7AC1 SLP236=
METAR CYGK 152300Z 17011KT 15SM BKN032 OVC095 01/M06 A3021 RMK SC5AC3 SLP236=

TAF CYGK 151939Z 1520/1604 06010KT P6SM FEW040 BKN120
BECMG 1520/1522 15012KT
FM152300 15012KT 6SM -SN OVC025 TEMPO 1523/1601 14012KT 11/2SM
-SN VV012 PROB40 1523/1601 3/4SM -SN VV008
FM160100 15012KT 3/4SM -SN VV008 TEMPO 1601/1604 2SM -SN OVC015
RMK NXT FCST BY 160200Z=
Your time UTC time
Weather data provided by Environment Canada and NAV CANADA